Time;durP1;ratioP1;P1;durP2;ratioP2;P2;SDS_P1;SDS_P2;PMS_P1;PMS_P2;Temp;Humidity;BMP_temperature;BMP_pressure;BME280_temperature;BME280_humidity;BME280_pressure;Samples;Min_cycle;Max_cycle;Signal;HPM_P1;HPM_P2
2023/11/01 00:00:19;;;;;;;0.20;0.20;;;18.40;53.30;;;;;;6136938;23;20620;-86
2023/11/01 00:02:46;;;;;;;0.10;0.10;;;18.40;53.40;;;;;;6111821;23;20151;-85
2023/11/01 00:05:18;;;;;;;0.65;0.10;;;18.40;53.40;;;;;;6111646;23;20698;-85
2023/11/01 00:07:48;;;;;;;1.10;0.10;;;18.40;53.40;;;;;;6088774;23;20159;-85
2023/11/01 00:10:18;;;;;;;0.20;0.20;;;18.50;53.30;;;;;;6111470;23;20269;-84
2023/11/01 00:12:51;;;;;;;0.20;0.20;;;18.40;53.40;;;;;;5993406;23;20166;-85
2023/11/01 00:15:17;;;;;;;0.20;0.13;;;18.40;53.40;;;;;;5970138;24;20159;-87
2023/11/01 00:17:44;;;;;;;0.17;0.15;;;18.30;53.40;;;;;;5993449;24;20186;-85
2023/11/01 00:20:20;;;;;;;0.50;0.10;;;18.30;53.40;;;;;;5992502;23;20239;-86
2023/11/01 00:22:50;;;;;;;0.35;0.10;;;18.30;53.40;;;;;;5973804;23;20150;-87
2023/11/01 00:25:20;;;;;;;0.20;0.10;;;18.30;53.50;;;;;;5965144;24;20152;-85
2023/11/01 00:27:50;;;;;;;0.22;0.20;;;18.30;53.50;;;;;;5888063;24;20165;-86
2023/11/01 00:30:18;;;;;;;0.20;0.20;;;18.30;53.50;;;;;;5842399;24;20198;-86
2023/11/01 00:32:49;;;;;;;0.10;0.10;;;18.30;53.60;;;;;;5888061;24;20169;-87
2023/11/01 00:35:17;;;;;;;0.10;0.10;;;18.20;53.50;;;;;;5865206;24;20308;-86
2023/11/01 00:37:45;;;;;;;0.10;0.10;;;18.30;53.50;;;;;;5864673;24;20192;-86
2023/11/01 00:40:14;;;;;;;0.40;0.20;;;18.30;53.60;;;;;;5832374;24;20194;-85
2023/11/01 00:42:42;;;;;;;0.10;0.10;;;18.20;53.60;;;;;;5818720;24;20155;-85
2023/11/01 00:45:11;;;;;;;0.20;0.20;;;18.30;53.70;;;;;;5869587;24;20156;-85
2023/11/01 00:47:38;;;;;;;0.20;0.10;;;18.30;53.70;;;;;;5892390;24;20621;-88
2023/11/01 00:50:14;;;;;;;0.20;0.20;;;18.30;53.70;;;;;;5891876;24;20467;-84
2023/11/01 00:52:44;;;;;;;0.63;0.30;;;18.30;53.60;;;;;;5811935;24;20180;-85
2023/11/01 00:55:10;;;;;;;0.15;0.10;;;18.20;53.70;;;;;;5812424;24;20236;-85
2023/11/01 00:57:38;;;;;;;0.55;0.25;;;18.20;53.70;;;;;;5856789;24;20165;-85
2023/11/01 01:00:07;;;;;;;0.20;0.20;;;18.30;53.70;;;;;;5893175;24;20228;-84
2023/11/01 01:02:32;;;;;;;0.10;0.10;;;18.30;53.80;;;;;;5883474;24;20750;-85
2023/11/01 01:04:59;;;;;;;0.17;0.17;;;18.20;53.80;;;;;;5905061;24;20156;-86
2023/11/01 01:07:27;;;;;;;0.32;0.10;;;18.20;53.70;;;;;;5892487;24;20193;-85
2023/11/01 01:09:53;;;;;;;0.20;0.20;;;18.20;53.70;;;;;;5869642;24;20221;-85
2023/11/01 01:12:23;;;;;;;0.20;0.20;;;18.30;53.80;;;;;;6018100;23;20158;-85
2023/11/01 01:14:57;;;;;;;0.10;0.10;;;18.20;53.90;;;;;;5997151;23;20158;-86
2023/11/01 01:17:23;;;;;;;0.15;0.15;;;18.20;54.00;;;;;;6014486;23;20239;-86
2023/11/01 01:19:53;;;;;;;0.30;0.10;;;18.20;54.00;;;;;;6083570;23;20164;-86
2023/11/01 01:22:22;;;;;;;0.20;0.20;;;18.20;54.00;;;;;;6083398;23;20172;-85
2023/11/01 01:24:55;;;;;;;0.13;0.13;;;18.20;54.00;;;;;;6012127;23;20149;-85
2023/11/01 01:27:28;;;;;;;0.17;0.17;;;18.20;54.00;;;;;;6083514;23;20160;-86
2023/11/01 01:29:55;;;;;;;0.25;0.17;;;18.10;53.90;;;;;;6054559;23;20225;-85
2023/11/01 01:32:25;;;;;;;0.20;0.10;;;18.20;54.00;;;;;;6055561;23;20149;-85
2023/11/01 01:34:55;;;;;;;0.20;0.20;;;18.20;54.00;;;;;;6078831;23;20258;-85
2023/11/01 01:37:25;;;;;;;2.20;0.20;;;18.20;54.10;;;;;;6055452;23;20153;-86
2023/11/01 01:39:56;;;;;;;0.10;0.10;;;18.20;54.90;;;;;;6054559;23;20192;-87
2023/11/01 01:42:22;;;;;;;0.52;0.20;;;18.20;54.20;;;;;;6025450;23;20150;-86
2023/11/01 01:44:48;;;;;;;0.77;0.20;;;18.20;54.60;;;;;;6020954;23;20158;-87
2023/11/01 01:47:18;;;;;;;0.20;0.20;;;18.10;54.40;;;;;;5997966;23;20206;-85
2023/11/01 01:49:50;;;;;;;0.20;0.20;;;18.10;55.00;;;;;;5997745;23;20167;-86
2023/11/01 01:52:16;;;;;;;0.20;0.20;;;18.10;54.30;;;;;;5974965;23;20652;-85
2023/11/01 01:54:42;;;;;;;0.40;0.13;;;18.10;54.30;;;;;;6014320;23;20692;-85
2023/11/01 01:57:09;;;;;;;0.20;0.20;;;18.10;54.40;;;;;;6026203;23;20142;-86
2023/11/01 01:59:35;;;;;;;0.20;0.20;;;18.00;54.30;;;;;;6025945;23;20858;-86
2023/11/01 02:02:06;;;;;;;0.20;0.20;;;18.10;54.50;;;;;;6024408;23;20158;-85
2023/11/01 02:04:32;;;;;;;0.20;0.20;;;18.10;54.40;;;;;;6025478;23;20708;-86
2023/11/01 02:07:01;;;;;;;0.40;0.30;;;18.10;54.40;;;;;;6057616;23;20156;-85
2023/11/01 02:09:35;;;;;;;0.13;0.13;;;18.10;54.40;;;;;;6042379;23;20406;-85
2023/11/01 02:12:01;;;;;;;0.98;0.20;;;18.10;54.50;;;;;;6030797;23;20216;-86
2023/11/01 02:14:38;;;;;;;0.15;0.10;;;18.10;54.40;;;;;;6054265;23;20240;-85
2023/11/01 02:17:13;;;;;;;0.60;0.20;;;18.10;54.50;;;;;;6041816;23;20160;-86
2023/11/01 02:19:44;;;;;;;0.47;0.20;;;18.10;54.50;;;;;;6043447;23;20671;-85
2023/11/01 02:22:11;;;;;;;0.20;0.20;;;18.10;54.60;;;;;;6025529;23;20154;-86
2023/11/01 02:24:41;;;;;;;0.10;0.10;;;18.00;54.50;;;;;;6002832;23;20610;-84
2023/11/01 02:27:12;;;;;;;0.10;0.10;;;18.10;54.50;;;;;;6002973;23;20145;-85
2023/11/01 02:29:42;;;;;;;0.65;0.20;;;18.10;54.60;;;;;;6002461;23;20161;-85
2023/11/01 02:32:16;;;;;;;0.80;0.20;;;18.10;54.60;;;;;;6025820;23;20229;-86
2023/11/01 02:34:46;;;;;;;0.10;0.10;;;18.00;54.60;;;;;;6002615;23;20594;-86
2023/11/01 02:37:18;;;;;;;0.70;0.20;;;18.00;54.60;;;;;;6049726;23;20150;-85
2023/11/01 02:39:44;;;;;;;0.10;0.10;;;18.00;55.30;;;;;;6025766;23;20190;-87
2023/11/01 02:42:31;;;;;;;0.70;0.20;;;18.00;54.60;;;;;;6025589;23;20269;-86
2023/11/01 02:44:57;;;;;;;0.35;0.20;;;18.00;54.70;;;;;;6025415;23;20156;-85
2023/11/01 02:47:25;;;;;;;0.10;0.10;;;18.10;54.80;;;;;;6024642;23;20173;-86
2023/11/01 02:49:54;;;;;;;1.38;0.10;;;18.00;54.70;;;;;;6002932;23;20163;-85
2023/11/01 02:52:27;;;;;;;0.10;0.10;;;18.10;54.70;;;;;;6021077;23;20202;-86
2023/11/01 02:55:02;;;;;;;0.10;0.10;;;18.10;54.60;;;;;;5930561;23;20173;-86
2023/11/01 02:57:33;;;;;;;0.20;0.20;;;18.10;54.90;;;;;;5931315;23;20168;-85
2023/11/01 03:00:06;;;;;;;0.38;0.30;;;18.00;54.80;;;;;;5950537;23;20186;-85
2023/11/01 03:02:40;;;;;;;0.17;0.17;;;18.00;54.90;;;;;;5964371;24;20244;-85
2023/11/01 03:05:12;;;;;;;0.35;0.10;;;18.00;54.90;;;;;;5940854;24;20163;-85
2023/11/01 03:07:38;;;;;;;0.10;0.10;;;18.00;54.90;;;;;;5941883;24;20162;-85
2023/11/01 03:10:14;;;;;;;0.20;0.20;;;18.00;54.90;;;;;;5964723;24;20238;-86
2023/11/01 03:12:43;;;;;;;0.25;0.20;;;18.00;54.70;;;;;;5941646;24;20194;-85
2023/11/01 03:15:09;;;;;;;0.25;0.20;;;18.00;54.90;;;;;;5930641;24;20232;-86
2023/11/01 03:17:38;;;;;;;0.20;0.20;;;18.10;54.90;;;;;;5914046;24;20177;-86
2023/11/01 03:20:11;;;;;;;0.10;0.10;;;18.00;54.90;;;;;;5968961;24;20203;-87
2023/11/01 03:22:46;;;;;;;0.28;0.20;;;18.00;55.00;;;;;;6016240;23;20180;-85
2023/11/01 03:25:15;;;;;;;0.20;0.20;;;18.00;54.90;;;;;;5991891;24;20161;-86
2023/11/01 03:27:50;;;;;;;0.40;0.30;;;18.00;55.70;;;;;;6016387;23;20242;-87
2023/11/01 03:30:27;;;;;;;0.13;0.10;;;18.00;55.00;;;;;;5993761;24;20195;-86
2023/11/01 03:32:53;;;;;;;0.20;0.20;;;18.00;55.00;;;;;;6010043;23;20194;-85
2023/11/01 03:35:26;;;;;;;0.30;0.20;;;18.00;55.10;;;;;;5978834;24;20176;-85
2023/11/01 03:37:55;;;;;;;0.10;0.10;;;17.90;55.10;;;;;;5944008;24;20164;-85
2023/11/01 03:40:23;;;;;;;0.20;0.10;;;18.00;55.10;;;;;;5966306;24;20580;-85
2023/11/01 03:42:55;;;;;;;0.30;0.20;;;18.00;55.10;;;;;;5994248;24;20156;-85
2023/11/01 03:45:21;;;;;;;0.30;0.20;;;17.90;55.20;;;;;;6015261;23;20159;-87
2023/11/01 03:47:54;;;;;;;0.28;0.17;;;17.90;55.10;;;;;;6113569;23;20159;-86
2023/11/01 03:50:25;;;;;;;0.10;0.10;;;17.90;55.20;;;;;;6064947;23;20152;-86
2023/11/01 03:53:08;;;;;;;0.20;0.20;;;18.00;55.20;;;;;;6097187;23;20162;-86
2023/11/01 03:55:37;;;;;;;0.20;0.20;;;17.90;55.20;;;;;;6121415;23;20162;-85
2023/11/01 03:58:09;;;;;;;0.10;0.10;;;17.90;55.20;;;;;;6143837;23;20159;-84
2023/11/01 04:00:44;;;;;;;0.10;0.10;;;17.90;55.20;;;;;;6143826;23;20214;-87
2023/11/01 04:03:11;;;;;;;0.20;0.20;;;17.90;55.30;;;;;;6119526;23;20169;-85
2023/11/01 04:05:46;;;;;;;0.40;0.25;;;17.90;55.40;;;;;;6144228;23;20167;-84
2023/11/01 04:08:12;;;;;;;0.13;0.13;;;17.90;55.40;;;;;;6096615;23;20151;-86
2023/11/01 04:10:38;;;;;;;0.75;0.20;;;17.90;55.40;;;;;;6078480;23;20201;-86
2023/11/01 04:13:09;;;;;;;0.10;0.10;;;17.90;55.40;;;;;;5998384;23;20198;-85
2023/11/01 04:15:42;;;;;;;0.57;0.20;;;18.00;55.60;;;;;;5976754;23;20550;-86
2023/11/01 04:18:17;;;;;;;0.20;0.13;;;17.90;55.40;;;;;;5993981;24;20160;-86
2023/11/01 04:20:43;;;;;;;0.22;0.20;;;17.90;55.50;;;;;;5947236;24;20194;-86
2023/11/01 04:23:12;;;;;;;0.20;0.20;;;17.90;55.50;;;;;;5970610;24;20190;-86
2023/11/01 04:25:45;;;;;;;0.32;0.10;;;17.90;55.40;;;;;;5971693;24;20173;-85
2023/11/01 04:28:17;;;;;;;0.40;0.10;;;17.90;55.50;;;;;;5881866;24;20199;-85
2023/11/01 04:30:43;;;;;;;0.10;0.10;;;17.90;55.50;;;;;;5910970;24;20172;-85
2023/11/01 04:33:31;;;;;;;0.10;0.10;;;17.90;55.50;;;;;;5938247;24;20243;-85
2023/11/01 04:36:08;;;;;;;0.40;0.10;;;17.90;55.50;;;;;;5883325;24;20724;-85
2023/11/01 04:38:36;;;;;;;0.10;0.10;;;17.90;55.40;;;;;;5838894;24;20281;-84
2023/11/01 04:41:09;;;;;;;0.10;0.10;;;17.90;55.40;;;;;;5856352;24;20186;-85
2023/11/01 04:43:38;;;;;;;0.93;0.20;;;17.90;55.40;;;;;;5883002;24;20162;-85
2023/11/01 04:46:05;;;;;;;0.28;0.10;;;17.90;55.40;;;;;;5860467;24;20154;-86
2023/11/01 04:48:33;;;;;;;0.10;0.10;;;17.90;55.50;;;;;;5879021;24;20176;-85
2023/11/01 04:51:19;;;;;;;0.10;0.10;;;17.80;55.50;;;;;;5910025;24;20610;-85
2023/11/01 04:53:50;;;;;;;0.13;0.13;;;17.90;55.60;;;;;;5917247;24;20164;-86
2023/11/01 04:56:19;;;;;;;0.30;0.20;;;17.80;55.50;;;;;;5960151;24;20183;-85
2023/11/01 04:58:54;;;;;;;0.10;0.10;;;17.80;55.50;;;;;;5965530;24;20185;-86
2023/11/01 05:01:26;;;;;;;0.30;0.20;;;17.90;55.50;;;;;;5875525;24;20315;-86
2023/11/01 05:03:52;;;;;;;0.15;0.15;;;17.80;56.20;;;;;;5953134;24;20169;-85
2023/11/01 05:06:26;;;;;;;0.17;0.17;;;17.90;55.70;;;;;;5970303;24;20175;-84
2023/11/01 05:08:56;;;;;;;0.17;0.10;;;17.80;55.50;;;;;;5970544;24;20605;-88
2023/11/01 05:11:25;;;;;;;0.10;0.10;;;17.90;55.50;;;;;;5994989;23;20202;-85
2023/11/01 05:13:55;;;;;;;0.20;0.10;;;17.80;55.50;;;;;;5997971;23;20159;-84
2023/11/01 05:16:24;;;;;;;0.60;0.22;;;17.90;55.60;;;;;;5974784;23;20167;-85
2023/11/01 05:18:54;;;;;;;0.38;0.17;;;17.90;55.70;;;;;;5997149;23;20143;-85
2023/11/01 05:21:35;;;;;;;0.50;0.10;;;17.80;55.60;;;;;;5942175;24;20173;-85
2023/11/01 05:24:06;;;;;;;0.10;0.10;;;17.80;55.70;;;;;;5886381;24;20164;-85
2023/11/01 05:26:38;;;;;;;0.10;0.10;;;17.80;55.60;;;;;;5910355;24;20154;-85
2023/11/01 05:29:08;;;;;;;0.20;0.20;;;17.80;55.60;;;;;;5916694;24;20157;-86
2023/11/01 05:31:33;;;;;;;0.40;0.20;;;17.80;55.70;;;;;;5937481;24;20160;-86
2023/11/01 05:34:05;;;;;;;0.10;0.10;;;17.80;55.60;;;;;;5909552;24;20162;-85
2023/11/01 05:36:33;;;;;;;0.10;0.10;;;17.80;56.20;;;;;;5910044;24;20161;-85
2023/11/01 05:39:05;;;;;;;0.22;0.10;;;17.80;55.60;;;;;;5887090;24;20158;-85
2023/11/01 05:41:33;;;;;;;0.80;0.20;;;17.90;55.70;;;;;;5864030;24;20158;-86
2023/11/01 05:44:00;;;;;;;0.10;0.10;;;17.80;55.60;;;;;;5864972;24;20186;-87
2023/11/01 05:46:30;;;;;;;0.20;0.20;;;17.80;55.70;;;;;;5909520;24;20201;-86
2023/11/01 05:49:04;;;;;;;0.38;0.10;;;17.80;55.70;;;;;;5908719;24;20509;-85
2023/11/01 05:51:30;;;;;;;0.35;0.20;;;17.80;55.70;;;;;;5908700;24;20221;-85
2023/11/01 05:53:56;;;;;;;0.28;0.28;;;17.80;55.70;;;;;;5912770;24;20233;-86
2023/11/01 05:56:27;;;;;;;0.30;0.20;;;17.90;55.80;;;;;;5965135;24;20632;-85
2023/11/01 05:58:57;;;;;;;0.20;0.17;;;17.80;55.70;;;;;;5938842;23;20237;-86
2023/11/01 06:01:33;;;;;;;0.10;0.10;;;17.80;55.70;;;;;;6052106;23;20138;-86
2023/11/01 06:04:02;;;;;;;0.32;0.17;;;17.80;56.40;;;;;;6043537;23;20158;-87
2023/11/01 06:06:35;;;;;;;0.15;0.15;;;17.80;55.80;;;;;;6199020;23;20143;-85
2023/11/01 06:09:03;;;;;;;0.10;0.10;;;17.80;55.80;;;;;;6147472;23;20453;-86
2023/11/01 06:11:32;;;;;;;0.30;0.20;;;17.80;55.80;;;;;;6173231;23;20142;-85
2023/11/01 06:14:00;;;;;;;0.20;0.20;;;17.80;55.70;;;;;;6149110;23;20166;-85
2023/11/01 06:16:29;;;;;;;0.20;0.15;;;17.80;55.80;;;;;;6152986;23;20146;-85
2023/11/01 06:18:58;;;;;;;0.63;0.30;;;17.80;55.80;;;;;;6153180;23;20146;-86
2023/11/01 06:21:30;;;;;;;0.10;0.10;;;17.80;55.80;;;;;;6119717;23;20991;-87
2023/11/01 06:24:03;;;;;;;0.40;0.20;;;17.80;55.60;;;;;;6171670;23;20165;-88
2023/11/01 06:26:50;;;;;;;0.10;0.10;;;17.80;55.70;;;;;;6171845;23;20213;-85
2023/11/01 06:29:19;;;;;;;0.25;0.17;;;17.80;55.80;;;;;;6195413;23;20154;-86
2023/11/01 06:31:51;;;;;;;0.20;0.20;;;17.80;55.70;;;;;;6197664;23;20138;-85
2023/11/01 06:34:23;;;;;;;0.17;0.17;;;17.90;55.80;;;;;;6170943;23;20214;-85
2023/11/01 06:36:57;;;;;;;0.20;0.20;;;17.80;55.70;;;;;;6137981;23;20166;-86
2023/11/01 06:39:31;;;;;;;0.40;0.20;;;17.90;55.30;;;;;;6079630;23;20280;-85
2023/11/01 06:42:02;;;;;;;0.17;0.17;;;17.90;55.40;;;;;;6055305;23;20153;-85
2023/11/01 06:44:32;;;;;;;0.10;0.10;;;18.00;55.20;;;;;;6016920;23;20187;-85
2023/11/01 06:47:11;;;;;;;0.10;0.10;;;18.00;55.30;;;;;;5966321;24;20160;-85
2023/11/01 06:49:38;;;;;;;0.17;0.17;;;18.00;55.30;;;;;;5899504;24;20156;-86
2023/11/01 06:52:09;;;;;;;0.15;0.15;;;18.00;55.10;;;;;;5920372;24;20168;-86
2023/11/01 06:54:38;;;;;;;0.10;0.10;;;18.00;55.20;;;;;;5921397;24;20156;-86
2023/11/01 06:57:10;;;;;;;0.13;0.10;;;18.10;54.80;;;;;;5862290;24;20162;-86
2023/11/01 06:59:39;;;;;;;0.10;0.10;;;18.10;55.00;;;;;;5861270;24;20190;-86
2023/11/01 07:02:13;;;;;;;0.40;0.20;;;18.10;54.90;;;;;;5833743;24;20155;-85
2023/11/01 07:04:40;;;;;;;0.10;0.10;;;18.30;54.10;;;;;;5856524;24;20158;-86
2023/11/01 07:07:07;;;;;;;0.10;0.10;;;18.30;54.30;;;;;;5846600;24;20154;-86
2023/11/01 07:09:33;;;;;;;0.17;0.10;;;18.30;54.40;;;;;;5859686;24;20204;-86
2023/11/01 07:12:10;;;;;;;0.20;0.20;;;18.40;53.70;;;;;;5885444;24;20178;-85
2023/11/01 07:14:58;;;;;;;0.10;0.10;;;18.40;53.70;;;;;;5893971;24;20539;-86
2023/11/01 07:17:28;;;;;;;0.20;0.20;;;18.50;53.40;;;;;;5960419;23;20179;-85
2023/11/01 07:20:00;;;;;;;0.15;0.10;;;18.50;53.70;;;;;;5999055;23;20182;-85
2023/11/01 07:22:37;;;;;;;0.10;0.10;;;18.50;53.90;;;;;;5975911;23;20151;-85
2023/11/01 07:25:15;;;;;;;0.10;0.10;;;18.50;53.90;;;;;;5997694;23;20215;-86
2023/11/01 07:27:50;;;;;;;0.10;0.10;;;18.60;53.70;;;;;;6019809;23;20237;-85
2023/11/01 07:30:21;;;;;;;0.10;0.10;;;18.60;53.80;;;;;;6114020;23;20331;-86
2023/11/01 07:32:52;;;;;;;0.10;0.10;;;18.50;54.00;;;;;;6137925;23;20162;-87
2023/11/01 07:35:27;;;;;;;0.10;0.10;;;18.50;54.10;;;;;;6085074;23;20465;-86
2023/11/01 07:37:56;;;;;;;0.30;0.20;;;18.50;53.70;;;;;;6079202;23;20157;-85
2023/11/01 07:40:26;;;;;;;0.10;0.10;;;18.60;53.40;;;;;;6057463;23;20179;-85
2023/11/01 07:43:22;;;;;;;0.15;0.15;;;18.60;53.70;;;;;;5992568;24;20299;-86
2023/11/01 07:45:53;;;;;;;0.10;0.10;;;18.60;53.20;;;;;;5942909;24;20160;-85
2023/11/01 07:48:34;;;;;;;0.10;0.10;;;18.60;53.50;;;;;;5897953;24;20164;-85
2023/11/01 07:51:15;;;;;;;0.10;0.10;;;18.60;53.00;;;;;;5887713;24;20160;-86
2023/11/01 07:53:44;;;;;;;0.00;0.00;;;18.60;53.70;;;;;;5888611;24;20160;-87
2023/11/01 07:56:18;;;;;;;0.43;0.10;;;18.60;53.40;;;;;;5911958;24;20166;-87
2023/11/01 07:59:00;;;;;;;0.20;0.20;;;18.60;53.40;;;;;;5889483;24;20176;-86
2023/11/01 08:01:28;;;;;;;0.10;0.10;;;18.60;53.50;;;;;;5867892;24;20172;-87
2023/11/01 08:04:01;;;;;;;0.20;0.20;;;18.60;53.20;;;;;;5890322;24;20169;-86
2023/11/01 08:06:38;;;;;;;0.20;0.20;;;18.70;52.90;;;;;;5894992;24;20685;-85
2023/11/01 08:09:06;;;;;;;0.10;0.10;;;18.70;53.00;;;;;;5944791;24;20152;-86
2023/11/01 08:11:56;;;;;;;;;;;;;;;;;;;;;
2023/11/01 08:15:12;;;;;;;0.10;0.10;;;18.70;52.90;;;;;;5894456;24;20193;-87
2023/11/01 08:18:03;;;;;;;0.10;0.10;;;18.70;52.80;;;;;;5859301;24;20161;-86
2023/11/01 08:20:54;;;;;;;;;;;;;;;;;;;;;
2023/11/01 08:23:30;;;;;;;0.10;0.10;;;18.70;52.90;;;;;;5745599;25;20201;-86
2023/11/01 08:26:21;;;;;;;0.20;0.20;;;18.70;52.70;;;;;;5697541;25;20226;-87
2023/11/01 08:28:50;;;;;;;0.25;0.20;;;18.70;52.90;;;;;;5697140;25;20162;-87
2023/11/01 08:31:22;;;;;;;0.22;0.20;;;18.70;52.80;;;;;;5718164;25;20173;-87
2023/11/01 08:34:26;;;;;;;0.10;0.10;;;18.70;52.50;;;;;;5674607;25;20171;-88
2023/11/01 08:36:52;;;;;;;0.10;0.10;;;18.70;52.50;;;;;;5689091;25;20167;-84
2023/11/01 08:39:17;;;;;;;0.57;0.28;;;18.80;52.30;;;;;;5689967;25;20493;-85
2023/11/01 08:41:43;;;;;;;0.17;0.10;;;18.80;52.10;;;;;;5718056;25;20312;-85
2023/11/01 08:44:10;;;;;;;0.25;0.20;;;18.80;52.30;;;;;;5718703;25;20160;-84
2023/11/01 08:46:38;;;;;;;0.20;0.20;;;18.80;52.30;;;;;;5740221;25;20170;-84
2023/11/01 08:49:05;;;;;;;0.45;0.20;;;18.80;51.90;;;;;;5764823;24;20173;-84
2023/11/01 08:51:30;;;;;;;0.45;0.10;;;18.80;52.00;;;;;;5741787;25;20216;-85
2023/11/01 08:54:03;;;;;;;0.20;0.20;;;18.90;51.90;;;;;;5743954;24;20164;-85
2023/11/01 08:56:29;;;;;;;0.22;0.22;;;18.80;51.80;;;;;;5745656;24;20207;-86
2023/11/01 08:58:57;;;;;;;0.20;0.20;;;18.90;52.00;;;;;;5787482;24;20227;-86
2023/11/01 09:01:24;;;;;;;0.17;0.17;;;18.80;51.90;;;;;;5769051;24;20175;-85
2023/11/01 09:03:50;;;;;;;0.20;0.20;;;18.80;51.80;;;;;;5758829;24;20166;-86
2023/11/01 09:06:19;;;;;;;0.30;0.20;;;18.80;51.70;;;;;;5992045;23;20154;-85
2023/11/01 09:08:49;;;;;;;0.25;0.20;;;18.90;51.80;;;;;;5991958;23;20739;-85
2023/11/01 09:11:23;;;;;;;0.32;0.20;;;18.90;51.70;;;;;;6105109;23;20214;-86
2023/11/01 09:13:49;;;;;;;1.15;0.20;;;18.90;51.70;;;;;;6086673;23;20222;-84
2023/11/01 09:16:15;;;;;;;0.10;0.10;;;18.90;51.70;;;;;;6134638;23;20159;-86
2023/11/01 09:18:42;;;;;;;0.13;0.10;;;18.90;51.50;;;;;;6109306;23;20158;-86
2023/11/01 09:21:09;;;;;;;0.20;0.10;;;18.80;51.30;;;;;;6134145;23;20175;-85
2023/11/01 09:23:35;;;;;;;0.10;0.10;;;18.80;51.40;;;;;;6133740;23;20179;-86
2023/11/01 09:26:01;;;;;;;1.38;0.15;;;18.90;51.50;;;;;;6110898;23;20147;-85
2023/11/01 09:28:27;;;;;;;0.22;0.20;;;18.80;51.10;;;;;;6112573;23;20148;-85
2023/11/01 09:30:58;;;;;;;1.58;0.28;;;18.90;51.00;;;;;;6112059;23;20593;-85
2023/11/01 09:33:24;;;;;;;2.60;0.20;;;18.90;50.90;;;;;;6136356;23;20487;-85
2023/11/01 09:35:50;;;;;;;2.55;0.40;;;18.90;51.40;;;;;;6159641;23;20131;-87
2023/11/01 09:38:17;;;;;;;3.78;0.43;;;18.90;50.70;;;;;;6104042;23;20160;-86
2023/11/01 09:40:44;;;;;;;3.15;0.40;;;19.00;50.60;;;;;;6032506;23;20294;-86
2023/11/01 09:43:10;;;;;;;2.17;0.50;;;19.10;50.60;;;;;;6037646;23;20152;-88
2023/11/01 09:45:50;;;;;;;1.55;0.50;;;19.00;50.40;;;;;;6108998;23;20167;-88
2023/11/01 09:48:18;;;;;;;1.58;0.30;;;19.00;50.20;;;;;;6102417;23;20591;-90
2023/11/01 09:50:45;;;;;;;3.38;0.30;;;19.10;50.00;;;;;;6082146;23;20152;-87
2023/11/01 09:53:10;;;;;;;2.35;0.50;;;19.00;50.20;;;;;;6102602;23;20155;-89
2023/11/01 09:55:36;;;;;;;0.45;0.30;;;19.10;50.00;;;;;;6077778;23;20156;-86
2023/11/01 09:58:03;;;;;;;8.93;0.47;;;19.10;49.80;;;;;;6078290;23;20156;-87
2023/11/01 10:00:29;;;;;;;3.20;0.38;;;19.10;49.80;;;;;;6124446;23;20191;-86
2023/11/01 10:02:58;;;;;;;3.50;0.30;;;19.10;49.70;;;;;;6102329;23;20132;-87
2023/11/01 10:05:24;;;;;;;4.57;0.30;;;19.10;49.60;;;;;;6054112;23;20164;-86
2023/11/01 10:07:53;;;;;;;2.92;0.28;;;19.00;49.60;;;;;;6076690;23;20144;-86
2023/11/01 10:10:19;;;;;;;1.33;0.20;;;19.10;49.60;;;;;;6115264;23;20227;-86
2023/11/01 10:12:46;;;;;;;6.20;0.20;;;19.10;49.50;;;;;;6133796;23;20151;-86
2023/11/01 10:15:19;;;;;;;4.28;0.50;;;19.10;50.10;;;;;;6132274;23;20183;-87
2023/11/01 10:17:52;;;;;;;1.77;0.20;;;19.10;49.50;;;;;;6132162;23;20482;-87
2023/11/01 10:20:23;;;;;;;4.95;0.55;;;19.10;49.40;;;;;;6086005;23;20238;-86
2023/11/01 10:22:49;;;;;;;4.82;0.52;;;19.10;49.60;;;;;;6132407;23;20136;-88
2023/11/01 10:25:15;;;;;;;5.43;0.60;;;19.00;49.40;;;;;;6132276;23;20151;-86
2023/11/01 10:27:41;;;;;;;2.58;0.30;;;19.10;49.40;;;;;;6159734;23;20623;-88
2023/11/01 10:30:07;;;;;;;10.00;0.60;;;19.10;49.20;;;;;;6112595;23;20527;-85
2023/11/01 10:32:33;;;;;;;8.60;0.70;;;19.00;49.40;;;;;;6136575;23;20155;-86
2023/11/01 10:35:10;;;;;;;6.40;0.93;;;19.00;49.60;;;;;;6135985;23;20222;-88
2023/11/01 10:37:36;;;;;;;8.32;0.70;;;19.00;49.60;;;;;;6134410;23;20149;-85
2023/11/01 10:40:07;;;;;;;4.82;0.60;;;18.90;49.20;;;;;;6133905;23;20195;-87
2023/11/01 10:42:40;;;;;;;8.30;0.95;;;19.00;49.20;;;;;;6109344;23;20159;-87
2023/11/01 10:45:09;;;;;;;5.57;0.68;;;19.00;49.20;;;;;;6108999;23;20226;-86
2023/11/01 10:47:35;;;;;;;2.30;0.60;;;19.00;49.10;;;;;;6160187;23;20158;-86
2023/11/01 10:50:08;;;;;;;3.47;0.52;;;19.00;49.10;;;;;;6135141;23;20135;-88
2023/11/01 10:52:34;;;;;;;3.15;0.60;;;19.00;49.90;;;;;;6104946;23;20627;-86
2023/11/01 10:55:04;;;;;;;2.97;0.65;;;19.00;49.00;;;;;;6152287;23;20151;-87
2023/11/01 10:57:39;;;;;;;3.75;0.50;;;19.00;48.80;;;;;;6160294;23;20226;-87
2023/11/01 11:00:17;;;;;;;3.15;0.47;;;19.10;49.00;;;;;;6108888;23;20175;-88
2023/11/01 11:02:55;;;;;;;5.70;0.80;;;19.00;48.80;;;;;;6108930;23;20213;-86
2023/11/01 11:05:29;;;;;;;3.95;0.60;;;19.10;48.90;;;;;;6111302;23;20155;-86
2023/11/01 11:08:09;;;;;;;3.10;0.55;;;19.00;48.70;;;;;;6133123;23;20214;-87
2023/11/01 11:10:39;;;;;;;3.20;0.45;;;19.00;48.70;;;;;;6092383;23;20207;-85
2023/11/01 11:13:25;;;;;;;6.97;0.65;;;19.00;48.50;;;;;;6103534;23;20194;-85
2023/11/01 11:15:59;;;;;;;4.05;0.50;;;19.00;48.80;;;;;;6082194;23;20163;-85
2023/11/01 11:18:28;;;;;;;4.38;0.50;;;19.00;48.90;;;;;;6102324;23;20199;-87
2023/11/01 11:20:59;;;;;;;2.78;0.40;;;18.90;48.80;;;;;;6053299;23;20714;-86
2023/11/01 11:23:37;;;;;;;3.95;0.45;;;19.00;48.60;;;;;;6004681;23;20152;-86
2023/11/01 11:26:07;;;;;;;2.17;0.45;;;19.00;48.60;;;;;;6099303;23;20207;-86
2023/11/01 11:28:47;;;;;;;4.60;0.43;;;19.00;48.50;;;;;;6052514;23;20243;-89
2023/11/01 11:31:18;;;;;;;3.70;0.60;;;19.00;48.40;;;;;;6079920;23;20159;-86
2023/11/01 11:34:10;;;;;;;1.88;0.40;;;19.00;48.50;;;;;;6100251;23;20548;-85
2023/11/01 11:36:36;;;;;;;1.52;0.32;;;19.00;48.70;;;;;;6110996;23;20235;-85
2023/11/01 11:39:05;;;;;;;0.63;0.20;;;18.90;48.50;;;;;;6105948;23;20196;-85
2023/11/01 11:41:44;;;;;;;1.23;0.55;;;19.00;48.20;;;;;;6141704;23;20161;-85
2023/11/01 11:44:13;;;;;;;4.07;0.60;;;19.10;48.40;;;;;;6187289;23;20151;-87
2023/11/01 11:46:49;;;;;;;1.85;0.50;;;19.00;48.20;;;;;;6185101;23;20215;-86
2023/11/01 11:49:24;;;;;;;3.70;0.30;;;19.00;48.00;;;;;;6161454;23;20162;-87
2023/11/01 11:52:03;;;;;;;2.42;0.40;;;19.00;48.20;;;;;;6164526;23;20130;-88
2023/11/01 11:54:34;;;;;;;8.07;0.50;;;19.10;48.00;;;;;;6144609;23;20214;-87
2023/11/01 11:57:07;;;;;;;4.55;0.50;;;19.10;48.00;;;;;;6190327;23;20641;-87
2023/11/01 11:59:35;;;;;;;2.97;0.43;;;19.10;48.20;;;;;;6168994;23;20181;-88
2023/11/01 12:02:14;;;;;;;5.65;0.60;;;19.10;48.00;;;;;;6174051;23;20193;-88
2023/11/01 12:04:43;;;;;;;1.60;0.50;;;19.00;47.90;;;;;;6020931;23;20150;-88
2023/11/01 12:07:18;;;;;;;1.80;0.60;;;19.00;47.90;;;;;;5996883;23;20210;-88
2023/11/01 12:10:08;;;;;;;0.80;0.32;;;19.00;48.50;;;;;;5966209;24;20198;-88
2023/11/01 12:12:37;;;;;;;1.73;0.38;;;19.00;48.50;;;;;;5917539;24;20577;-88
2023/11/01 12:15:08;;;;;;;3.83;0.55;;;18.90;47.90;;;;;;5937865;24;20186;-86
2023/11/01 12:17:37;;;;;;;0.50;0.30;;;18.90;47.80;;;;;;5907208;24;20278;-87
2023/11/01 12:20:15;;;;;;;2.67;0.40;;;18.90;47.80;;;;;;5887041;24;20252;-88
2023/11/01 12:22:44;;;;;;;2.53;0.43;;;18.90;47.80;;;;;;5884589;24;20164;-87
2023/11/01 12:25:11;;;;;;;4.38;0.50;;;18.90;47.70;;;;;;5883162;24;20164;-87
2023/11/01 12:27:38;;;;;;;6.82;0.40;;;18.90;47.60;;;;;;5883551;24;20141;-89
2023/11/01 12:30:07;;;;;;;1.83;0.50;;;18.90;47.50;;;;;;5905355;24;20199;-88
2023/11/01 12:32:38;;;;;;;0.40;0.20;;;19.00;47.50;;;;;;5936947;24;20257;-88
2023/11/01 12:35:09;;;;;;;1.13;0.30;;;18.90;47.20;;;;;;5936300;24;20160;-89
2023/11/01 12:37:38;;;;;;;1.80;0.45;;;19.00;47.20;;;;;;5869102;24;20160;-89
2023/11/01 12:40:12;;;;;;;0.30;0.30;;;19.00;47.10;;;;;;5897304;24;20198;-88
2023/11/01 12:42:46;;;;;;;2.92;0.32;;;19.00;47.10;;;;;;5943965;23;20181;-89
2023/11/01 12:45:15;;;;;;;0.98;0.28;;;18.90;47.10;;;;;;5973925;23;20205;-88
2023/11/01 12:47:43;;;;;;;0.43;0.30;;;19.00;47.10;;;;;;6030423;23;20159;-88
2023/11/01 12:50:15;;;;;;;1.15;0.45;;;19.00;47.00;;;;;;6058645;23;20156;-89
2023/11/01 12:52:43;;;;;;;5.20;0.45;;;19.00;47.00;;;;;;6022506;23;20642;-88
2023/11/01 12:55:09;;;;;;;1.48;0.60;;;19.00;47.00;;;;;;6015110;23;20220;-88
2023/11/01 12:57:37;;;;;;;2.25;0.35;;;18.90;47.10;;;;;;6002249;23;20340;-89
2023/11/01 13:00:14;;;;;;;4.25;0.60;;;19.00;47.20;;;;;;6025088;23;20187;-88
2023/11/01 14:12:11;;;;;;;1.95;0.28;;;18.90;46.70;;;;;;6161050;23;20155;-89
2023/11/01 14:14:42;;;;;;;0.60;0.32;;;18.90;46.70;;;;;;6111698;23;20148;-89
2023/11/01 14:17:11;;;;;;;2.60;0.50;;;18.80;46.60;;;;;;6083426;23;20568;-88